Canapolis, Brazil
Current Conditions -  °F | °C
As of 6:00 PM on Sunday 23 Nov 2014 (Local Time) from SBUL Reporting Station
Thunderstorm Thunderstorm  
Wind Chill: 72°   Ceiling: Unl
Heat Index: 72°   Visibility: 6mi
Dew Point: 66°   Wind: 2mph
Humidity: 83%   Direction: 170°S
Pressure: 29.97"   Gusts: NA
Location:  18.73°S, 49.2°W
Report Text: SBUL 232000Z 17002KT 9999 -TSRA SCT009 FEW050CB 22/19 Q1015
Loading
Personal Weather Stations






























Interactive Weather Map New forecast layout! Learn more

10-Day Weather Forecast

Advertisements
Track Severe Weather on mobile